createdAt,value
2024-01-28T00:01:43.135Z,-2.27
2024-01-28T00:04:12.088Z,-2.28
2024-01-28T00:06:41.234Z,-2.29
2024-01-28T00:09:11.113Z,-2.24
2024-01-28T00:11:41.066Z,-2.28
2024-01-28T00:14:09.796Z,-2.32
2024-01-28T00:16:38.612Z,-2.37
2024-01-28T00:19:09.770Z,-2.42
2024-01-28T00:21:38.685Z,-2.44
2024-01-28T00:24:08.643Z,-2.41
2024-01-28T00:26:41.314Z,-2.42
2024-01-28T00:29:10.201Z,-2.40
2024-01-28T00:31:39.135Z,-2.40
2024-01-28T00:34:09.463Z,-2.42
2024-01-28T00:36:38.418Z,-2.49
2024-01-28T00:39:07.250Z,-2.54
2024-01-28T00:41:38.323Z,-2.55
2024-01-28T00:44:07.337Z,-2.49
2024-01-28T00:46:36.064Z,-2.50
2024-01-28T00:49:05.212Z,-2.57
2024-01-28T00:51:36.399Z,-2.54
2024-01-28T00:54:05.784Z,-2.51
2024-01-28T00:56:35.212Z,-2.49
2024-01-28T00:59:04.041Z,-2.48
2024-01-28T01:01:32.821Z,-2.47
2024-01-28T01:04:01.730Z,-2.44
2024-01-28T01:06:30.665Z,-2.46
2024-01-28T01:09:01.656Z,-2.45
2024-01-28T01:11:30.471Z,-2.48
2024-01-28T01:13:59.335Z,-2.49
2024-01-28T01:16:28.251Z,-2.52
2024-01-28T01:18:57.348Z,-2.60
2024-01-28T01:21:26.170Z,-2.68
2024-01-28T01:23:55.286Z,-2.74
2024-01-28T01:26:25.585Z,-2.79
2024-01-28T01:28:54.360Z,-2.77
2024-01-28T01:31:23.205Z,-2.79
2024-01-28T01:33:52.080Z,-2.78
2024-01-28T01:36:21.400Z,-2.76
2024-01-28T01:38:50.215Z,-2.78
2024-01-28T01:41:18.978Z,-2.83
2024-01-28T01:43:49.164Z,-2.82
2024-01-28T01:46:18.169Z,-2.84
2024-01-28T01:48:47.431Z,-2.77
2024-01-28T01:51:16.603Z,-2.79
2024-01-28T01:53:45.337Z,-2.83
2024-01-28T01:56:14.202Z,-2.84
2024-01-28T01:58:43.243Z,-2.90
2024-01-28T02:01:13.604Z,-2.89
2024-01-28T02:03:42.754Z,-2.95
2024-01-28T02:06:12.636Z,-2.96
2024-01-28T02:08:41.414Z,-2.98
2024-01-28T02:11:10.189Z,-2.99
2024-01-28T02:13:41.074Z,-2.97
2024-01-28T02:16:09.797Z,-2.93
2024-01-28T02:18:40.379Z,-2.92
2024-01-28T02:21:09.654Z,-2.91
2024-01-28T02:23:39.973Z,-2.86
2024-01-28T02:26:09.370Z,-2.83
2024-01-28T02:28:38.345Z,-2.79
2024-01-28T02:31:07.229Z,-2.77
2024-01-28T02:33:36.164Z,-2.84
2024-01-28T02:36:05.317Z,-2.88
2024-01-28T02:38:34.138Z,-2.91
2024-01-28T02:41:04.696Z,-2.95
2024-01-28T02:43:33.732Z,-2.97
2024-01-28T02:46:02.581Z,-3.05
2024-01-28T02:48:31.397Z,-3.07
2024-01-28T02:51:00.231Z,-3.08
2024-01-28T02:53:29.455Z,-3.11
2024-01-28T02:56:01.293Z,-3.17
2024-01-28T02:58:32.889Z,-3.19
2024-01-28T03:01:01.793Z,-3.21
2024-01-28T03:03:31.178Z,-3.19
2024-01-28T03:06:00.281Z,-3.17
2024-01-28T03:08:29.067Z,-3.21
2024-01-28T03:10:58.207Z,-3.25
2024-01-28T03:13:27.228Z,-3.27
2024-01-28T03:15:58.094Z,-3.29
2024-01-28T03:18:27.120Z,-3.36
2024-01-28T03:20:56.797Z,-3.38
2024-01-28T03:23:25.675Z,-3.44
2024-01-28T03:25:54.445Z,-3.49
2024-01-28T03:28:23.143Z,-3.51
2024-01-28T03:30:52.044Z,-3.54
2024-01-28T03:33:22.846Z,-3.52
2024-01-28T03:35:52.171Z,-3.51
2024-01-28T03:38:21.185Z,-3.54
2024-01-28T03:40:50.153Z,-3.53
2024-01-28T03:43:19.261Z,-3.59
2024-01-28T03:45:48.340Z,-3.56
2024-01-28T03:48:17.781Z,-3.61
2024-01-28T03:50:48.553Z,-3.67
2024-01-28T03:53:17.331Z,-3.64
2024-01-28T03:55:46.981Z,-3.65
2024-01-28T03:58:15.769Z,-3.69
2024-01-28T04:00:45.086Z,-3.70
2024-01-28T04:03:14.335Z,-3.79
2024-01-28T04:05:44.639Z,-3.82
2024-01-28T04:08:15.630Z,-3.82
2024-01-28T04:10:44.520Z,-3.80
2024-01-28T04:13:13.427Z,-3.81
2024-01-28T04:15:42.476Z,-3.88
2024-01-28T04:18:11.622Z,-3.90
2024-01-28T04:20:40.663Z,-3.93
2024-01-28T04:23:09.451Z,-3.98
2024-01-28T04:25:39.790Z,-3.97
2024-01-28T04:28:09.028Z,-4.00
2024-01-28T04:30:38.419Z,-4.00
2024-01-28T04:33:07.793Z,-3.99
2024-01-28T04:35:36.572Z,-4.00
2024-01-28T04:38:05.560Z,-4.02
2024-01-28T04:40:34.399Z,-4.02
2024-01-28T04:43:04.821Z,-4.03
2024-01-28T04:45:33.660Z,-4.05
2024-01-28T04:48:02.818Z,-4.05
2024-01-28T04:50:31.638Z,-4.10
2024-01-28T04:53:00.325Z,-4.12
2024-01-28T04:55:29.582Z,-4.11
2024-01-28T04:57:58.525Z,-4.11
2024-01-28T05:00:28.700Z,-4.08
2024-01-28T05:02:58.162Z,-4.08
2024-01-28T05:05:27.088Z,-4.07
2024-01-28T05:07:55.935Z,-4.08
2024-01-28T05:10:25.309Z,-4.04
2024-01-28T05:12:54.208Z,-4.03
2024-01-28T05:15:23.293Z,-4.03
2024-01-28T05:17:53.646Z,-4.07
2024-01-28T05:20:23.375Z,-4.14
2024-01-28T05:22:52.963Z,-4.15
2024-01-28T05:25:22.050Z,-4.19
2024-01-28T05:27:50.837Z,-4.20
2024-01-28T05:30:19.924Z,-4.17
2024-01-28T05:32:49.487Z,-4.24
2024-01-28T05:35:19.917Z,-4.30
2024-01-28T05:37:48.896Z,-4.29
2024-01-28T05:40:17.698Z,-4.24
2024-01-28T05:42:46.802Z,-4.23
2024-01-28T05:45:15.857Z,-4.18
2024-01-28T05:47:44.853Z,-4.14
2024-01-28T05:50:14.009Z,-4.14
2024-01-28T05:52:44.220Z,-4.11
2024-01-28T05:55:13.535Z,-4.11
2024-01-28T05:57:42.242Z,-4.06
2024-01-28T06:00:13.224Z,-4.04
2024-01-28T06:02:42.072Z,-3.99
2024-01-28T06:05:12.027Z,-3.93
2024-01-28T06:07:40.765Z,-3.88
2024-01-28T06:10:11.812Z,-3.71
2024-01-28T06:12:40.671Z,-3.68
2024-01-28T06:15:11.136Z,-3.69
2024-01-28T06:17:40.613Z,-3.65
2024-01-28T06:20:10.531Z,-3.64
2024-01-28T06:22:39.518Z,-3.60
2024-01-28T06:25:09.513Z,-3.47
2024-01-28T06:27:39.913Z,-3.41
2024-01-28T06:30:10.192Z,-3.43
2024-01-28T06:32:39.360Z,-3.42
2024-01-28T06:35:09.169Z,-3.38
2024-01-28T06:37:38.946Z,-3.30
2024-01-28T06:40:09.224Z,-3.31
2024-01-28T06:42:39.498Z,-3.26
2024-01-28T06:45:10.476Z,-3.27
2024-01-28T06:47:39.842Z,-3.29
2024-01-28T06:50:09.911Z,-3.26
2024-01-28T06:52:38.700Z,-3.05
2024-01-28T06:55:08.850Z,-2.83
2024-01-28T06:57:39.114Z,-2.73
2024-01-28T07:00:12.237Z,-2.69
2024-01-28T07:02:41.995Z,-2.71
2024-01-28T07:05:13.123Z,-2.44
2024-01-28T07:07:42.398Z,-2.19
2024-01-28T07:10:11.517Z,-2.05
2024-01-28T07:12:41.920Z,-1.85
2024-01-28T07:15:11.964Z,-1.84
2024-01-28T07:17:40.826Z,-1.78
2024-01-28T07:20:11.298Z,-1.67
2024-01-28T07:22:40.402Z,-1.49
2024-01-28T07:25:10.041Z,-1.32
2024-01-28T07:27:39.885Z,-1.10
2024-01-28T07:30:10.826Z,-1.03
2024-01-28T07:32:39.572Z,-0.95
2024-01-28T07:35:08.812Z,-0.69
2024-01-28T07:37:37.591Z,-0.63
2024-01-28T07:40:07.951Z,-0.56
2024-01-28T07:42:36.831Z,-0.41
2024-01-28T07:45:06.324Z,-0.19
2024-01-28T07:47:38.234Z,0.02
2024-01-28T07:50:09.066Z,0.07
2024-01-28T07:52:37.949Z,0.09
2024-01-28T07:55:08.156Z,0.11
2024-01-28T07:57:37.040Z,0.16
2024-01-28T08:00:07.011Z,0.29
2024-01-28T08:02:42.072Z,0.29
2024-01-28T08:05:11.853Z,0.36
2024-01-28T08:07:42.100Z,0.43
2024-01-28T08:10:11.600Z,0.53
2024-01-28T08:12:41.247Z,0.72
2024-01-28T08:15:10.624Z,0.82
2024-01-28T08:17:39.389Z,0.93
2024-01-28T08:20:10.753Z,1.03
2024-01-28T08:22:42.369Z,1.15
2024-01-28T08:25:13.307Z,1.23
2024-01-28T08:27:42.244Z,1.19
2024-01-28T08:30:13.000Z,1.14
2024-01-28T08:32:41.746Z,1.31
2024-01-28T08:35:12.696Z,1.54
2024-01-28T08:37:41.834Z,1.74
2024-01-28T08:40:11.525Z,1.81
2024-01-28T08:42:40.211Z,1.82
2024-01-28T08:45:09.561Z,1.94
2024-01-28T08:47:38.347Z,1.93
2024-01-28T08:50:08.396Z,2.04
2024-01-28T08:52:38.817Z,2.17
2024-01-28T08:55:08.157Z,2.23
2024-01-28T08:57:36.890Z,2.37
2024-01-28T09:00:06.716Z,2.54
2024-01-28T09:02:37.829Z,2.84
2024-01-28T09:05:09.505Z,2.98
2024-01-28T09:07:39.866Z,3.15
2024-01-28T09:10:09.569Z,3.22
2024-01-28T09:12:38.472Z,3.27
2024-01-28T09:15:08.416Z,3.35
2024-01-28T09:17:37.744Z,3.57
2024-01-28T09:20:07.594Z,3.68
2024-01-28T09:22:37.461Z,3.88
2024-01-28T09:25:08.298Z,3.93
2024-01-28T09:27:37.286Z,4.07
2024-01-28T09:30:07.935Z,4.19
2024-01-28T09:32:36.770Z,4.22
2024-01-28T09:35:05.763Z,4.30
2024-01-28T09:37:35.204Z,4.43
2024-01-28T09:40:04.436Z,4.45
2024-01-28T09:42:39.666Z,4.63
2024-01-28T09:45:09.233Z,4.81
2024-01-28T09:47:38.394Z,4.82
2024-01-28T09:50:08.495Z,4.85
2024-01-28T09:52:38.109Z,4.92
2024-01-28T09:55:07.446Z,5.07
2024-01-28T09:57:38.410Z,5.16
2024-01-28T10:00:09.490Z,5.23
2024-01-28T10:02:44.773Z,5.41
2024-01-28T10:05:16.393Z,5.51
2024-01-28T10:07:46.097Z,5.62
2024-01-28T10:10:15.176Z,5.76
2024-01-28T10:12:45.989Z,5.86
2024-01-28T10:15:18.447Z,5.99
2024-01-28T10:17:50.750Z,6.09
2024-01-28T10:20:20.449Z,6.20
2024-01-28T10:22:49.392Z,6.28
2024-01-28T10:25:19.102Z,6.44
2024-01-28T10:27:49.682Z,6.55
2024-01-28T10:30:20.646Z,6.65
2024-01-28T10:32:49.798Z,6.76
2024-01-28T10:35:18.761Z,6.82
2024-01-28T10:37:50.449Z,6.90
2024-01-28T10:40:19.735Z,6.97
2024-01-28T10:42:50.976Z,7.06
2024-01-28T10:45:20.911Z,7.16
2024-01-28T10:47:54.247Z,7.23
2024-01-28T10:50:24.825Z,7.37
2024-01-28T10:52:53.535Z,7.49
2024-01-28T10:55:22.355Z,7.63
2024-01-28T10:57:52.837Z,7.77
2024-01-28T11:00:22.877Z,7.89
2024-01-28T11:02:52.009Z,7.93
2024-01-28T11:05:21.228Z,8.04
2024-01-28T11:07:51.490Z,8.09
2024-01-28T11:10:20.290Z,8.16
2024-01-28T11:12:49.900Z,8.18
2024-01-28T11:15:22.029Z,8.28
2024-01-28T11:17:52.064Z,8.37
2024-01-28T11:20:25.268Z,8.50
2024-01-28T11:22:54.571Z,8.61
2024-01-28T11:25:23.839Z,8.70
2024-01-28T11:27:52.862Z,8.85
2024-01-28T11:30:26.244Z,9.04
2024-01-28T11:32:58.859Z,9.13
2024-01-28T11:35:27.909Z,9.30
2024-01-28T11:37:57.681Z,9.39
2024-01-28T11:40:26.952Z,9.47
2024-01-28T11:42:56.416Z,9.50
2024-01-28T11:45:27.332Z,9.54
2024-01-28T11:47:56.289Z,9.59
2024-01-28T11:50:25.084Z,9.68
2024-01-28T11:52:53.868Z,9.68
2024-01-28T11:55:23.219Z,9.64
2024-01-28T11:57:52.318Z,9.61
2024-01-28T12:00:22.482Z,9.59
2024-01-28T12:02:52.766Z,9.60
2024-01-28T12:05:21.574Z,9.56
2024-01-28T12:07:51.175Z,9.62
2024-01-28T12:10:20.577Z,9.56
2024-01-28T12:12:49.474Z,9.55
2024-01-28T12:15:19.068Z,9.46
2024-01-28T12:17:49.504Z,9.48
2024-01-28T12:20:23.881Z,9.53
2024-01-28T12:22:52.985Z,9.50
2024-01-28T12:25:23.170Z,9.37
2024-01-28T12:27:53.047Z,9.23
2024-01-28T12:30:22.289Z,9.08
2024-01-28T12:32:52.588Z,9.17
2024-01-28T12:35:23.303Z,9.22
2024-01-28T12:37:52.334Z,9.21
2024-01-28T12:40:21.058Z,9.16
2024-01-28T12:42:49.931Z,9.12
2024-01-28T12:45:18.943Z,9.12
2024-01-28T12:47:47.673Z,9.17
2024-01-28T12:50:16.984Z,9.14
2024-01-28T12:52:47.382Z,9.16
2024-01-28T12:55:16.754Z,9.07
2024-01-28T12:57:45.698Z,9.02
2024-01-28T13:00:15.797Z,8.91
2024-01-28T13:02:45.200Z,8.89
2024-01-28T13:05:15.890Z,8.87
2024-01-28T13:07:44.641Z,8.81
2024-01-28T13:10:15.208Z,8.73
2024-01-28T13:12:45.342Z,8.65
2024-01-28T13:15:15.990Z,8.54
2024-01-28T13:17:45.106Z,8.49
2024-01-28T13:20:15.126Z,8.43
2024-01-28T13:22:45.752Z,8.38
2024-01-28T13:25:16.833Z,8.27
2024-01-28T13:27:45.577Z,8.17
2024-01-28T13:30:14.907Z,8.11
2024-01-28T13:32:48.110Z,8.03
2024-01-28T13:35:17.693Z,7.93
2024-01-28T13:37:46.978Z,7.91
2024-01-28T13:40:17.395Z,7.83
2024-01-28T13:42:47.229Z,7.79
2024-01-28T13:45:16.130Z,7.77
2024-01-28T13:47:46.753Z,7.75
2024-01-28T13:50:15.581Z,7.72
2024-01-28T13:52:44.972Z,7.65
2024-01-28T13:55:13.739Z,7.60
2024-01-28T13:57:44.016Z,7.61
2024-01-28T14:00:14.067Z,7.55
2024-01-28T14:02:44.855Z,7.48
2024-01-28T14:05:14.495Z,7.35
2024-01-28T14:07:43.336Z,7.32
2024-01-28T14:10:12.662Z,7.19
2024-01-28T14:12:41.499Z,7.10
2024-01-28T14:15:15.680Z,6.92
2024-01-28T14:17:45.943Z,6.79
2024-01-28T14:20:14.790Z,6.69
2024-01-28T14:22:43.526Z,6.57
2024-01-28T14:25:12.860Z,6.45
2024-01-28T14:27:42.409Z,6.31
2024-01-28T14:30:13.372Z,6.23
2024-01-28T14:32:42.170Z,6.18
2024-01-28T14:35:13.375Z,6.07
2024-01-28T14:37:42.955Z,6.01
2024-01-28T14:40:12.329Z,5.97
2024-01-28T14:42:41.256Z,5.85
2024-01-28T14:45:12.762Z,5.78
2024-01-28T14:47:43.102Z,5.75
2024-01-28T14:50:12.410Z,5.67
2024-01-28T14:52:41.212Z,5.57
2024-01-28T14:55:10.977Z,5.51
2024-01-28T14:57:39.730Z,5.45
2024-01-28T15:00:10.814Z,5.45
2024-01-28T15:02:39.552Z,5.37
2024-01-28T15:05:10.673Z,5.29
2024-01-28T15:07:39.448Z,5.31
2024-01-28T15:10:09.339Z,5.31
2024-01-28T15:12:38.134Z,5.26
2024-01-28T15:15:07.322Z,5.16
2024-01-28T15:17:36.118Z,5.15
2024-01-28T15:20:06.836Z,5.08
2024-01-28T15:22:37.398Z,5.13
2024-01-28T15:25:07.430Z,5.12
2024-01-28T15:27:36.264Z,4.96
2024-01-28T15:30:05.444Z,5.11
2024-01-28T15:32:34.256Z,5.13
2024-01-28T15:35:03.524Z,5.16
2024-01-28T15:37:32.313Z,5.14
2024-01-28T15:40:02.560Z,5.03
2024-01-28T15:42:31.409Z,4.99
2024-01-28T15:45:00.174Z,4.91
2024-01-28T15:47:28.893Z,4.89
2024-01-28T15:49:58.330Z,4.89
2024-01-28T15:52:27.555Z,4.81
2024-01-28T15:54:56.475Z,4.84
2024-01-28T15:57:26.721Z,4.91
2024-01-28T16:00:06.562Z,4.89
2024-01-28T16:02:37.441Z,4.81
2024-01-28T16:05:07.097Z,4.78
2024-01-28T16:07:36.047Z,4.77
2024-01-28T16:10:04.781Z,4.73
2024-01-28T16:12:35.108Z,4.71
2024-01-28T16:15:03.873Z,4.70
2024-01-28T16:17:33.243Z,4.66
2024-01-28T16:20:02.207Z,4.62
2024-01-28T16:22:31.166Z,4.61
2024-01-28T16:24:59.942Z,4.64
2024-01-28T16:27:28.689Z,4.69
2024-01-28T16:29:59.197Z,4.72
2024-01-28T16:32:27.893Z,4.60
2024-01-28T16:34:57.594Z,4.48
2024-01-28T16:37:27.090Z,4.48
2024-01-28T16:39:56.810Z,4.48
2024-01-28T16:42:25.661Z,4.59
2024-01-28T16:44:54.997Z,4.48
2024-01-28T16:47:25.327Z,4.42
2024-01-28T16:49:54.311Z,4.47
2024-01-28T16:52:23.967Z,4.51
2024-01-28T16:54:52.725Z,4.34
2024-01-28T16:57:22.903Z,4.26
2024-01-28T16:59:52.280Z,4.17
2024-01-28T17:02:21.371Z,4.12
2024-01-28T17:04:51.525Z,4.04
2024-01-28T17:07:20.293Z,3.94
2024-01-28T17:09:49.062Z,3.86
2024-01-28T17:12:18.226Z,3.92
2024-01-28T17:14:46.964Z,3.96
2024-01-28T17:17:16.179Z,4.01
2024-01-28T17:19:44.998Z,4.05
2024-01-28T17:22:15.428Z,4.02
2024-01-28T17:24:44.325Z,3.98
2024-01-28T17:27:13.772Z,3.92
2024-01-28T17:29:42.715Z,3.81
2024-01-28T17:32:11.485Z,3.79
2024-01-28T17:34:40.280Z,3.70
2024-01-28T17:37:09.168Z,3.61
2024-01-28T17:39:39.411Z,3.50
2024-01-28T17:42:12.740Z,3.48
2024-01-28T17:44:41.499Z,3.52
2024-01-28T17:47:11.223Z,3.51
2024-01-28T17:49:40.377Z,3.50
2024-01-28T17:52:10.845Z,3.51
2024-01-28T17:54:41.206Z,3.48
2024-01-28T17:57:10.035Z,3.41
2024-01-28T17:59:38.927Z,3.33
2024-01-28T18:02:08.195Z,3.41
2024-01-28T18:04:37.777Z,3.47
2024-01-28T18:07:07.102Z,3.60
2024-01-28T18:09:35.856Z,3.69
2024-01-28T18:12:06.774Z,3.77
2024-01-28T18:14:35.564Z,3.82
2024-01-28T18:17:04.367Z,3.81
2024-01-28T18:19:33.436Z,3.81
2024-01-28T18:22:02.167Z,3.79
2024-01-28T18:24:31.280Z,3.85
2024-01-28T18:26:59.996Z,3.91
2024-01-28T18:29:30.229Z,3.92
2024-01-28T18:31:59.205Z,3.83
2024-01-28T18:34:28.028Z,3.93
2024-01-28T18:36:56.832Z,3.94
2024-01-28T18:39:26.121Z,3.90
2024-01-28T18:41:54.878Z,3.92
2024-01-28T18:44:25.755Z,3.90
2024-01-28T18:46:56.234Z,3.92
2024-01-28T18:49:25.824Z,3.92
2024-01-28T18:51:54.724Z,3.96
2024-01-28T18:54:23.996Z,4.00
2024-01-28T18:56:52.773Z,3.92
2024-01-28T18:59:21.472Z,3.85
2024-01-28T19:01:50.216Z,3.82
2024-01-28T19:04:20.448Z,3.76
2024-01-28T19:06:49.338Z,3.72
2024-01-28T19:09:18.201Z,3.78
2024-01-28T19:11:47.002Z,3.77
2024-01-28T19:14:16.233Z,3.80
2024-01-28T19:16:46.367Z,3.75
2024-01-28T19:19:15.652Z,3.78
2024-01-28T19:21:45.972Z,3.73
2024-01-28T19:24:14.922Z,3.69
2024-01-28T19:26:43.996Z,3.67
2024-01-28T19:29:12.833Z,3.69
2024-01-28T19:31:44.090Z,3.64
2024-01-28T19:34:17.263Z,3.67
2024-01-28T19:36:49.010Z,3.66
2024-01-28T19:39:19.620Z,3.83
2024-01-28T19:41:50.858Z,3.89
2024-01-28T19:44:19.998Z,3.86
2024-01-28T19:46:48.894Z,3.78
2024-01-28T19:49:17.898Z,3.76
2024-01-28T19:51:48.143Z,3.72
2024-01-28T19:54:18.411Z,3.74
2024-01-28T19:56:47.402Z,3.78
2024-01-28T19:59:16.201Z,3.76
2024-01-28T20:01:44.974Z,3.70
2024-01-28T20:04:13.808Z,3.72
2024-01-28T20:06:42.680Z,3.67
2024-01-28T20:09:12.880Z,3.64
2024-01-28T20:11:42.233Z,3.78
2024-01-28T20:14:11.088Z,3.89
2024-01-28T20:16:39.836Z,3.91
2024-01-28T20:19:09.520Z,3.93
2024-01-28T20:21:39.268Z,3.92
2024-01-28T20:24:09.068Z,3.84
2024-01-28T20:26:39.578Z,3.75
2024-01-28T20:29:08.514Z,3.69
2024-01-28T20:31:37.319Z,3.73
2024-01-28T20:34:06.326Z,3.78
2024-01-28T20:36:35.145Z,3.74
2024-01-28T20:39:06.163Z,3.67
2024-01-28T20:41:36.326Z,3.63
2024-01-28T20:44:06.735Z,3.67
2024-01-28T20:46:35.420Z,3.69
2024-01-28T20:49:04.324Z,3.68
2024-01-28T20:51:33.253Z,3.70
2024-01-28T20:54:02.370Z,3.76
2024-01-28T20:56:31.377Z,3.80
2024-01-28T20:59:00.078Z,3.83
2024-01-28T21:01:30.301Z,3.85
2024-01-28T21:03:59.577Z,3.82
2024-01-28T21:06:29.460Z,3.79
2024-01-28T21:08:58.189Z,3.77
2024-01-28T21:11:27.346Z,3.76
2024-01-28T21:13:56.044Z,3.76
2024-01-28T21:16:25.092Z,3.82
2024-01-28T21:18:55.569Z,3.83
2024-01-28T21:21:26.793Z,3.91
2024-01-28T21:23:55.575Z,3.90
2024-01-28T21:26:24.666Z,3.90
2024-01-28T21:28:53.418Z,3.97
2024-01-28T21:31:22.381Z,3.98
2024-01-28T21:33:52.328Z,3.96
2024-01-28T21:36:22.824Z,3.98
2024-01-28T21:38:51.590Z,4.05
2024-01-28T21:41:20.341Z,3.93
2024-01-28T21:43:49.070Z,3.88
2024-01-28T21:46:18.390Z,3.92
2024-01-28T21:48:47.263Z,3.89
2024-01-28T21:51:17.573Z,3.98
2024-01-28T21:53:49.392Z,3.95
2024-01-28T21:56:18.043Z,3.90
2024-01-28T21:58:46.884Z,3.89
2024-01-28T22:01:16.056Z,3.88
2024-01-28T22:03:45.719Z,3.89
2024-01-28T22:06:14.498Z,3.91
2024-01-28T22:08:43.477Z,3.88
2024-01-28T22:11:13.807Z,3.94
2024-01-28T22:13:42.602Z,4.05
2024-01-28T22:16:11.650Z,4.12
2024-01-28T22:18:40.706Z,4.03
2024-01-28T22:21:09.894Z,4.07
2024-01-28T22:23:39.725Z,4.18
2024-01-28T22:26:08.648Z,4.15
2024-01-28T22:28:40.353Z,4.07
2024-01-28T22:31:09.492Z,4.01
2024-01-28T22:33:38.372Z,4.03
2024-01-28T22:36:07.560Z,4.09
2024-01-28T22:38:36.396Z,3.98
2024-01-28T22:41:05.448Z,4.02
2024-01-28T22:43:34.906Z,4.02
2024-01-28T22:46:05.188Z,4.02
2024-01-28T22:48:34.286Z,3.98
2024-01-28T22:51:03.710Z,3.95
2024-01-28T22:53:33.013Z,3.94
2024-01-28T22:56:03.561Z,3.98
2024-01-28T22:58:32.873Z,3.97
2024-01-28T23:01:06.087Z,3.93
2024-01-28T23:03:36.491Z,3.96
2024-01-28T23:06:06.486Z,4.03
2024-01-28T23:08:36.637Z,4.11
2024-01-28T23:11:05.740Z,4.19
2024-01-28T23:13:36.679Z,4.23
2024-01-28T23:16:05.978Z,4.24
2024-01-28T23:18:36.810Z,4.21
2024-01-28T23:21:06.475Z,4.30
2024-01-28T23:23:35.953Z,4.22
2024-01-28T23:26:04.790Z,4.17
2024-01-28T23:28:33.532Z,4.14
2024-01-28T23:31:02.437Z,4.05
2024-01-28T23:33:31.556Z,3.98
2024-01-28T23:36:03.360Z,3.95
2024-01-28T23:38:32.081Z,3.95
2024-01-28T23:41:00.890Z,4.04
2024-01-28T23:43:29.687Z,4.12
2024-01-28T23:45:58.427Z,4.22
2024-01-28T23:48:27.615Z,4.24
2024-01-28T23:50:58.439Z,4.26
2024-01-28T23:53:28.958Z,4.22
2024-01-28T23:55:57.734Z,4.23
2024-01-28T23:58:26.440Z,4.18
